Hauptseite
METAR-TAF:

METAR-TAF

Flughäfen :

Fliegerhorst Neuburg

Neuburg, Deutschland

Breite: 48-43N, Länge: 011-13E, Höhe: 380 m

Beobachtung

Neuester Wetterbericht von vor 1 Stunde und 49 Minuten, um 23:20 UTC
Wind 2 kt aus Südwest
Temperatur 1°C
Luftfeuchtigkeit 69%
Luftdruck 1011 hPa
Sichtweite 10 km oder mehr
Leicht bewölkt in der Höhe von 7000 ft

METAR: ETSN 022320Z 23002KT 9999 FEW070 01/M04 Q1011 BLU+

Zeit: 03:09 (01:09 UTC)

Prognose

Neuester Wetterbericht von vor 2 Stunden und 47 Minuten, um 22:22 UTC
Gültige Prognose vom 02 um 23 UTC bis 03 um 08 UTC
Wind 3 kt aus unterschiedlichen Richtungen
Sichtweite 10 km oder mehr
Himmel klar

TAF: ETSN 022222Z 0223/0308 VRB03KT 9999 NSW SKC BY ETGL

Wetterbeobachtungen und Prognosen von mehr als 4000 Flughäfen (METAR und TAF Bericht).

Die verfügbaren Stationen werden durch gelbe und rote Markierungen auf der Karte dargestellt.

Führen Sie die Maus auf sie, um den Namen der Station zu sehen.

Darauf klicken, um die Beobachtung von Wetterbeobachtungen und Prognosen zu sehen.

Um die Karte zu ändern : klicken Sie auf den grünen Tasten mit einem schwarzen Kreuz Zum Vergrößern, auf den grünen Button mit einem Gedankenstrich zu verkleinern, oder auf die grünen Pfeile für benachbarte Karten.


METAR-TAF: